sensor_id;sensor_type;location;lat;lon;timestamp;temperature;humidity
12223;DHT22;6174;49.058;8.524;2022-11-15T05:00:34;10.10;99.90
12223;DHT22;6174;49.058;8.524;2022-11-15T05:03:01;10.40;99.90
12223;DHT22;6174;49.058;8.524;2022-11-15T05:05:46;10.20;99.90
12223;DHT22;6174;49.058;8.524;2022-11-15T05:08:12;10.10;99.90
12223;DHT22;6174;49.058;8.524;2022-11-15T05:10:39;10.10;99.90
12223;DHT22;6174;49.058;8.524;2022-11-15T05:13:06;10.00;99.90
12223;DHT22;6174;49.058;8.524;2022-11-15T05:15:34;10.10;99.90
12223;DHT22;6174;49.058;8.524;2022-11-15T05:18:01;10.00;99.90
12223;DHT22;6174;49.058;8.524;2022-11-15T05:20:28;9.90;99.90
12223;DHT22;6174;49.058;8.524;2022-11-15T05:22:54;10.00;99.90
12223;DHT22;6174;49.058;8.524;2022-11-15T05:25:21;10.20;99.90
12223;DHT22;6174;49.058;8.524;2022-11-15T05:27:48;9.70;99.90
12223;DHT22;6174;49.058;8.524;2022-11-15T05:30:16;9.80;99.90
12223;DHT22;6174;49.058;8.524;2022-11-15T05:32:44;9.70;99.90
12223;DHT22;6174;49.058;8.524;2022-11-15T05:35:13;9.70;99.90
12223;DHT22;6174;49.058;8.524;2022-11-15T05:37:43;10.00;99.90
12223;DHT22;6174;49.058;8.524;2022-11-15T05:40:10;10.10;99.90
12223;DHT22;6174;49.058;8.524;2022-11-15T05:42:37;9.60;99.90
12223;DHT22;6174;49.058;8.524;2022-11-15T05:45:06;9.70;99.90
12223;DHT22;6174;49.058;8.524;2022-11-15T05:47:35;9.70;99.90
12223;DHT22;6174;49.058;8.524;2022-11-15T05:50:05;9.60;99.90
12223;DHT22;6174;49.058;8.524;2022-11-15T05:52:35;9.60;99.90
12223;DHT22;6174;49.058;8.524;2022-11-15T05:55:03;9.60;99.90
12223;DHT22;6174;49.058;8.524;2022-11-15T05:57:32;9.60;99.90
12223;DHT22;6174;49.058;8.524;2022-11-15T05:59:58;9.70;99.90
12223;DHT22;6174;49.058;8.524;2022-11-15T06:02:25;9.60;99.90
12223;DHT22;6174;49.058;8.524;2022-11-15T06:04:52;9.50;99.90
12223;DHT22;6174;49.058;8.524;2022-11-15T06:07:20;9.50;99.90
12223;DHT22;6174;49.058;8.524;2022-11-15T06:09:47;9.50;99.90
12223;DHT22;6174;49.058;8.524;2022-11-15T06:12:14;9.50;99.90
12223;DHT22;6174;49.058;8.524;2022-11-15T06:14:41;9.50;99.90
12223;DHT22;6174;49.058;8.524;2022-11-15T06:17:07;9.40;99.90
12223;DHT22;6174;49.058;8.524;2022-11-15T06:19:34;9.70;99.90
12223;DHT22;6174;49.058;8.524;2022-11-15T06:22:01;9.40;99.90
12223;DHT22;6174;49.058;8.524;2022-11-15T06:24:29;9.30;99.90
12223;DHT22;6174;49.058;8.524;2022-11-15T06:26:56;9.30;99.90
12223;DHT22;6174;49.058;8.524;2022-11-15T06:29:24;9.30;99.90
12223;DHT22;6174;49.058;8.524;2022-11-15T06:31:51;9.40;99.90
12223;DHT22;6174;49.058;8.524;2022-11-15T06:34:18;9.40;99.90
12223;DHT22;6174;49.058;8.524;2022-11-15T06:36:44;9.30;99.90
12223;DHT22;6174;49.058;8.524;2022-11-15T06:39:11;9.30;99.90
12223;DHT22;6174;49.058;8.524;2022-11-15T06:41:39;9.30;99.90
12223;DHT22;6174;49.058;8.524;2022-11-15T06:44:06;9.30;99.90
12223;DHT22;6174;49.058;8.524;2022-11-15T06:46:33;9.30;99.90
12223;DHT22;6174;49.058;8.524;2022-11-15T06:49:00;9.20;99.90
12223;DHT22;6174;49.058;8.524;2022-11-15T06:51:26;9.20;99.90
12223;DHT22;6174;49.058;8.524;2022-11-15T06:53:54;9.20;99.90
12223;DHT22;6174;49.058;8.524;2022-11-15T06:56:21;9.20;99.90
12223;DHT22;6174;49.058;8.524;2022-11-15T06:58:49;9.30;99.90
12223;DHT22;6174;49.058;8.524;2022-11-15T07:01:15;9.40;99.90
12223;DHT22;6174;49.058;8.524;2022-11-15T07:03:42;9.40;99.90
12223;DHT22;6174;49.058;8.524;2022-11-15T07:06:10;9.50;99.90
12223;DHT22;6174;49.058;8.524;2022-11-15T07:08:37;9.60;99.90
12223;DHT22;6174;49.058;8.524;2022-11-15T07:11:05;9.60;99.90
12223;DHT22;6174;49.058;8.524;2022-11-15T07:13:33;9.60;99.90
12223;DHT22;6174;49.058;8.524;2022-11-15T07:16:03;9.60;99.90
12223;DHT22;6174;49.058;8.524;2022-11-15T07:18:30;9.60;99.90
12223;DHT22;6174;49.058;8.524;2022-11-15T07:21:00;9.60;99.90
12223;DHT22;6174;49.058;8.524;2022-11-15T07:23:27;9.70;99.90
12223;DHT22;6174;49.058;8.524;2022-11-15T07:25:56;9.60;99.90
12223;DHT22;6174;49.058;8.524;2022-11-15T07:28:23;9.70;99.90
12223;DHT22;6174;49.058;8.524;2022-11-15T07:30:50;9.70;99.90
12223;DHT22;6174;49.058;8.524;2022-11-15T07:33:18;9.70;99.90
12223;DHT22;6174;49.058;8.524;2022-11-15T07:35:46;9.70;99.90
12223;DHT22;6174;49.058;8.524;2022-11-15T07:38:24;9.70;99.90
12223;DHT22;6174;49.058;8.524;2022-11-15T07:40:56;9.80;99.90
12223;DHT22;6174;49.058;8.524;2022-11-15T07:43:23;9.80;99.90
12223;DHT22;6174;49.058;8.524;2022-11-15T07:45:49;9.80;99.90
12223;DHT22;6174;49.058;8.524;2022-11-15T07:48:17;9.90;99.90
12223;DHT22;6174;49.058;8.524;2022-11-15T07:50:44;9.90;99.90
12223;DHT22;6174;49.058;8.524;2022-11-15T07:53:11;9.90;99.90
12223;DHT22;6174;49.058;8.524;2022-11-15T07:55:39;9.90;99.90
12223;DHT22;6174;49.058;8.524;2022-11-15T07:58:08;9.90;99.90
12223;DHT22;6174;49.058;8.524;2022-11-15T08:00:36;9.90;99.90
12223;DHT22;6174;49.058;8.524;2022-11-15T08:03:04;9.90;99.90
12223;DHT22;6174;49.058;8.524;2022-11-15T08:05:33;10.00;99.90
12223;DHT22;6174;49.058;8.524;2022-11-15T08:08:00;10.00;99.90
12223;DHT22;6174;49.058;8.524;2022-11-15T08:10:27;10.10;99.90
12223;DHT22;6174;49.058;8.524;2022-11-15T08:12:58;10.10;99.90
12223;DHT22;6174;49.058;8.524;2022-11-15T08:15:25;10.10;99.90
12223;DHT22;6174;49.058;8.524;2022-11-15T08:17:56;10.10;99.90
12223;DHT22;6174;49.058;8.524;2022-11-15T08:20:23;10.10;99.90
12223;DHT22;6174;49.058;8.524;2022-11-15T08:22:52;10.10;99.90
12223;DHT22;6174;49.058;8.524;2022-11-15T08:25:18;10.10;99.90
12223;DHT22;6174;49.058;8.524;2022-11-15T08:27:45;10.10;99.90
12223;DHT22;6174;49.058;8.524;2022-11-15T08:30:12;10.10;99.90
12223;DHT22;6174;49.058;8.524;2022-11-15T08:32:41;10.20;99.90
12223;DHT22;6174;49.058;8.524;2022-11-15T08:35:08;10.20;99.90
12223;DHT22;6174;49.058;8.524;2022-11-15T08:37:35;10.30;99.90
12223;DHT22;6174;49.058;8.524;2022-11-15T08:40:04;10.30;99.90
12223;DHT22;6174;49.058;8.524;2022-11-15T08:42:30;10.30;99.90
12223;DHT22;6174;49.058;8.524;2022-11-15T08:44:57;10.30;99.90
12223;DHT22;6174;49.058;8.524;2022-11-15T08:47:24;10.40;99.90
12223;DHT22;6174;49.058;8.524;2022-11-15T08:49:52;10.50;99.90
12223;DHT22;6174;49.058;8.524;2022-11-15T08:52:18;10.50;99.90
12223;DHT22;6174;49.058;8.524;2022-11-15T08:54:45;10.60;99.90
12223;DHT22;6174;49.058;8.524;2022-11-15T08:57:13;10.60;99.90
12223;DHT22;6174;49.058;8.524;2022-11-15T08:59:40;10.80;99.90
12223;DHT22;6174;49.058;8.524;2022-11-15T09:02:11;10.90;99.90
12223;DHT22;6174;49.058;8.524;2022-11-15T09:04:39;10.90;99.90
12223;DHT22;6174;49.058;8.524;2022-11-15T09:07:06;10.90;99.90
12223;DHT22;6174;49.058;8.524;2022-11-15T09:09:33;10.90;99.90
12223;DHT22;6174;49.058;8.524;2022-11-15T09:12:00;10.90;99.90
12223;DHT22;6174;49.058;8.524;2022-11-15T09:14:28;10.90;99.90
12223;DHT22;6174;49.058;8.524;2022-11-15T09:16:55;10.90;99.90
12223;DHT22;6174;49.058;8.524;2022-11-15T09:19:22;10.90;99.90
12223;DHT22;6174;49.058;8.524;2022-11-15T09:21:48;10.90;99.90
12223;DHT22;6174;49.058;8.524;2022-11-15T09:24:15;10.90;99.90
12223;DHT22;6174;49.058;8.524;2022-11-15T09:26:43;10.90;99.90
12223;DHT22;6174;49.058;8.524;2022-11-15T09:29:10;10.90;99.90
12223;DHT22;6174;49.058;8.524;2022-11-15T09:31:38;10.90;99.90
12223;DHT22;6174;49.058;8.524;2022-11-15T09:34:04;11.00;99.90
12223;DHT22;6174;49.058;8.524;2022-11-15T09:36:31;11.00;99.90
12223;DHT22;6174;49.058;8.524;2022-11-15T09:38:58;11.00;99.90
12223;DHT22;6174;49.058;8.524;2022-11-15T09:41:43;11.00;99.90
12223;DHT22;6174;49.058;8.524;2022-11-15T09:44:29;11.00;99.90
12223;DHT22;6174;49.058;8.524;2022-11-15T09:47:10;11.10;99.90
12223;DHT22;6174;49.058;8.524;2022-11-15T09:49:41;11.10;99.90
12223;DHT22;6174;49.058;8.524;2022-11-15T09:52:10;11.20;99.90
12223;DHT22;6174;49.058;8.524;2022-11-15T09:54:39;11.20;99.90
12223;DHT22;6174;49.058;8.524;2022-11-15T09:57:10;11.20;99.90
12223;DHT22;6174;49.058;8.524;2022-11-15T09:59:58;11.20;99.90
12223;DHT22;6174;49.058;8.524;2022-11-15T10:02:49;11.30;99.90
12223;DHT22;6174;49.058;8.524;2022-11-15T10:05:20;11.30;99.90
12223;DHT22;6174;49.058;8.524;2022-11-15T10:07:54;11.30;99.90
12223;DHT22;6174;49.058;8.524;2022-11-15T10:10:25;11.40;99.90
12223;DHT22;6174;49.058;8.524;2022-11-15T10:12:54;11.20;99.90
12223;DHT22;6174;49.058;8.524;2022-11-15T10:15:21;11.30;99.90
12223;DHT22;6174;49.058;8.524;2022-11-15T10:18:06;11.30;99.90
12223;DHT22;6174;49.058;8.524;2022-11-15T10:20:42;11.30;99.90
12223;DHT22;6174;49.058;8.524;2022-11-15T10:23:13;11.30;99.90
12223;DHT22;6174;49.058;8.524;2022-11-15T10:25:40;11.30;99.90
12223;DHT22;6174;49.058;8.524;2022-11-15T10:28:13;11.30;99.90
12223;DHT22;6174;49.058;8.524;2022-11-15T10:30:43;11.30;99.90
12223;DHT22;6174;49.058;8.524;2022-11-15T10:33:24;11.30;99.90
12223;DHT22;6174;49.058;8.524;2022-11-15T10:36:16;11.40;99.90
12223;DHT22;6174;49.058;8.524;2022-11-15T10:38:54;11.40;99.90
12223;DHT22;6174;49.058;8.524;2022-11-15T10:41:27;11.40;99.90
12223;DHT22;6174;49.058;8.524;2022-11-15T10:44:18;11.60;99.90
12223;DHT22;6174;49.058;8.524;2022-11-15T10:46:46;11.50;99.90
12223;DHT22;6174;49.058;8.524;2022-11-15T10:49:16;11.50;99.90
12223;DHT22;6174;49.058;8.524;2022-11-15T10:51:46;11.50;99.90
12223;DHT22;6174;49.058;8.524;2022-11-15T10:54:28;11.50;99.90
12223;DHT22;6174;49.058;8.524;2022-11-15T10:56:58;11.60;99.90
12223;DHT22;6174;49.058;8.524;2022-11-15T10:59:28;11.60;99.90
12223;DHT22;6174;49.058;8.524;2022-11-15T11:01:55;11.60;99.90
12223;DHT22;6174;49.058;8.524;2022-11-15T11:04:23;11.60;99.90
12223;DHT22;6174;49.058;8.524;2022-11-15T11:06:51;11.60;99.90
12223;DHT22;6174;49.058;8.524;2022-11-15T11:09:27;11.60;99.90
12223;DHT22;6174;49.058;8.524;2022-11-15T11:11:55;11.60;99.90
12223;DHT22;6174;49.058;8.524;2022-11-15T11:14:23;11.70;99.90
12223;DHT22;6174;49.058;8.524;2022-11-15T11:16:55;11.70;99.90
12223;DHT22;6174;49.058;8.524;2022-11-15T11:19:59;11.70;99.90
12223;DHT22;6174;49.058;8.524;2022-11-15T11:22:32;11.70;99.90
12223;DHT22;6174;49.058;8.524;2022-11-15T11:25:21;11.80;99.90
12223;DHT22;6174;49.058;8.524;2022-11-15T11:27:59;11.80;99.90
12223;DHT22;6174;49.058;8.524;2022-11-15T11:30:40;11.90;99.90
12223;DHT22;6174;49.058;8.524;2022-11-15T11:33:14;11.90;99.90
12223;DHT22;6174;49.058;8.524;2022-11-15T11:35:51;11.90;99.90
12223;DHT22;6174;49.058;8.524;2022-11-15T11:38:31;11.90;99.90
12223;DHT22;6174;49.058;8.524;2022-11-15T11:41:06;11.90;99.90
12223;DHT22;6174;49.058;8.524;2022-11-15T11:43:41;11.90;99.90
12223;DHT22;6174;49.058;8.524;2022-11-15T11:46:23;12.00;99.90
12223;DHT22;6174;49.058;8.524;2022-11-15T11:48:58;11.90;99.90
12223;DHT22;6174;49.058;8.524;2022-11-15T11:51:33;11.90;99.90
12223;DHT22;6174;49.058;8.524;2022-11-15T11:54:09;12.00;99.90
12223;DHT22;6174;49.058;8.524;2022-11-15T11:56:41;12.10;99.90
12223;DHT22;6174;49.058;8.524;2022-11-15T11:59:16;12.00;99.90
12223;DHT22;6174;49.058;8.524;2022-11-15T12:01:45;12.10;99.90
12223;DHT22;6174;49.058;8.524;2022-11-15T12:04:18;12.10;99.90
12223;DHT22;6174;49.058;8.524;2022-11-15T12:06:50;12.20;99.90
12223;DHT22;6174;49.058;8.524;2022-11-15T12:09:23;12.20;99.90
12223;DHT22;6174;49.058;8.524;2022-11-15T12:12:02;12.20;99.90
12223;DHT22;6174;49.058;8.524;2022-11-15T12:14:35;12.20;99.90
12223;DHT22;6174;49.058;8.524;2022-11-15T12:17:02;12.30;99.90
12223;DHT22;6174;49.058;8.524;2022-11-15T12:19:30;12.20;99.90
12223;DHT22;6174;49.058;8.524;2022-11-15T12:22:02;12.20;99.90
12223;DHT22;6174;49.058;8.524;2022-11-15T12:24:34;12.20;99.90
12223;DHT22;6174;49.058;8.524;2022-11-15T12:27:05;12.30;99.90
12223;DHT22;6174;49.058;8.524;2022-11-15T12:29:37;12.30;99.90
12223;DHT22;6174;49.058;8.524;2022-11-15T12:32:10;12.30;99.90
12223;DHT22;6174;49.058;8.524;2022-11-15T12:34:46;12.40;99.90
12223;DHT22;6174;49.058;8.524;2022-11-15T12:37:47;12.40;99.90
12223;DHT22;6174;49.058;8.524;2022-11-15T12:40:29;12.40;99.90
12223;DHT22;6174;49.058;8.524;2022-11-15T12:43:02;12.50;99.90
12223;DHT22;6174;49.058;8.524;2022-11-15T12:45:31;12.50;99.90
12223;DHT22;6174;49.058;8.524;2022-11-15T12:54:54;12.80;99.90
12223;DHT22;6174;49.058;8.524;2022-11-15T12:57:33;12.80;99.90
12223;DHT22;6174;49.058;8.524;2022-11-15T13:00:02;12.90;99.90
12223;DHT22;6174;49.058;8.524;2022-11-15T13:02:33;12.90;99.90
12223;DHT22;6174;49.058;8.524;2022-11-15T13:05:55;13.00;99.90
12223;DHT22;6174;49.058;8.524;2022-11-15T13:11:49;13.10;99.90
12223;DHT22;6174;49.058;8.524;2022-11-15T13:14:50;13.20;99.90
12223;DHT22;6174;49.058;8.524;2022-11-15T13:17:33;13.20;99.90
12223;DHT22;6174;49.058;8.524;2022-11-15T13:20:18;13.30;99.90
12223;DHT22;6174;49.058;8.524;2022-11-15T13:22:46;13.40;99.90
12223;DHT22;6174;49.058;8.524;2022-11-15T13:25:48;13.40;99.90
12223;DHT22;6174;49.058;8.524;2022-11-15T13:28:33;13.50;99.90
12223;DHT22;6174;49.058;8.524;2022-11-15T13:31:03;13.60;99.90
12223;DHT22;6174;49.058;8.524;2022-11-15T13:33:34;13.60;99.90
12223;DHT22;6174;49.058;8.524;2022-11-15T13:36:04;13.50;99.90
12223;DHT22;6174;49.058;8.524;2022-11-15T13:38:34;13.60;99.90
12223;DHT22;6174;49.058;8.524;2022-11-15T13:41:14;13.60;99.90
12223;DHT22;6174;49.058;8.524;2022-11-15T13:43:45;13.50;99.90
12223;DHT22;6174;49.058;8.524;2022-11-15T13:46:16;13.50;99.90
12223;DHT22;6174;49.058;8.524;2022-11-15T13:48:44;13.50;99.90
12223;DHT22;6174;49.058;8.524;2022-11-15T13:51:16;13.50;99.90
12223;DHT22;6174;49.058;8.524;2022-11-15T13:53:47;13.50;99.90
12223;DHT22;6174;49.058;8.524;2022-11-15T13:56:15;13.50;99.90
12223;DHT22;6174;49.058;8.524;2022-11-15T13:58:42;13.60;99.90
12223;DHT22;6174;49.058;8.524;2022-11-15T14:01:15;13.60;99.90
12223;DHT22;6174;49.058;8.524;2022-11-15T14:03:48;13.70;99.90
12223;DHT22;6174;49.058;8.524;2022-11-15T14:06:17;13.60;99.90
12223;DHT22;6174;49.058;8.524;2022-11-15T14:08:59;13.50;99.90
12223;DHT22;6174;49.058;8.524;2022-11-15T14:11:28;13.50;99.90
12223;DHT22;6174;49.058;8.524;2022-11-15T14:14:11;13.40;99.90
12223;DHT22;6174;49.058;8.524;2022-11-15T14:16:41;13.40;99.90
12223;DHT22;6174;49.058;8.524;2022-11-15T14:19:11;13.40;99.90
12223;DHT22;6174;49.058;8.524;2022-11-15T14:22:08;13.40;99.90
12223;DHT22;6174;49.058;8.524;2022-11-15T14:24:35;13.40;99.90
12223;DHT22;6174;49.058;8.524;2022-11-15T14:27:16;13.30;99.90
12223;DHT22;6174;49.058;8.524;2022-11-15T14:29:43;13.30;99.90
12223;DHT22;6174;49.058;8.524;2022-11-15T14:32:15;13.40;99.90
12223;DHT22;6174;49.058;8.524;2022-11-15T14:34:42;13.50;99.90
12223;DHT22;6174;49.058;8.524;2022-11-15T14:37:21;13.60;99.90
12223;DHT22;6174;49.058;8.524;2022-11-15T14:39:48;13.70;99.90
12223;DHT22;6174;49.058;8.524;2022-11-15T14:42:15;13.70;99.90
12223;DHT22;6174;49.058;8.524;2022-11-15T14:44:44;13.70;99.90
12223;DHT22;6174;49.058;8.524;2022-11-15T14:47:19;13.70;99.90
12223;DHT22;6174;49.058;8.524;2022-11-15T14:49:46;13.80;99.90
12223;DHT22;6174;49.058;8.524;2022-11-15T14:52:26;13.80;99.90
12223;DHT22;6174;49.058;8.524;2022-11-15T14:54:57;13.70;99.90
12223;DHT22;6174;49.058;8.524;2022-11-15T14:57:26;13.70;99.90
12223;DHT22;6174;49.058;8.524;2022-11-15T14:59:53;13.70;99.90
12223;DHT22;6174;49.058;8.524;2022-11-15T15:02:23;13.60;99.90
12223;DHT22;6174;49.058;8.524;2022-11-15T15:05:07;13.70;99.90
12223;DHT22;6174;49.058;8.524;2022-11-15T15:07:39;13.30;99.90
12223;DHT22;6174;49.058;8.524;2022-11-15T15:10:06;13.60;99.90
12223;DHT22;6174;49.058;8.524;2022-11-15T15:12:33;13.50;99.90
12223;DHT22;6174;49.058;8.524;2022-11-15T15:15:00;13.50;99.90
12223;DHT22;6174;49.058;8.524;2022-11-15T15:17:28;13.50;99.90
12223;DHT22;6174;49.058;8.524;2022-11-15T15:19:55;13.80;99.90
12223;DHT22;6174;49.058;8.524;2022-11-15T15:22:21;13.60;99.90
12223;DHT22;6174;49.058;8.524;2022-11-15T15:24:51;13.70;99.90
12223;DHT22;6174;49.058;8.524;2022-11-15T15:27:18;13.60;99.90
12223;DHT22;6174;49.058;8.524;2022-11-15T15:29:47;13.60;99.90
12223;DHT22;6174;49.058;8.524;2022-11-15T15:32:14;13.90;99.90
12223;DHT22;6174;49.058;8.524;2022-11-15T15:34:43;13.60;99.90
12223;DHT22;6174;49.058;8.524;2022-11-15T15:37:22;13.60;99.90
12223;DHT22;6174;49.058;8.524;2022-11-15T15:39:49;13.60;99.90
12223;DHT22;6174;49.058;8.524;2022-11-15T15:42:17;13.60;99.90
12223;DHT22;6174;49.058;8.524;2022-11-15T15:44:49;13.70;99.90
12223;DHT22;6174;49.058;8.524;2022-11-15T15:47:19;13.70;99.90
12223;DHT22;6174;49.058;8.524;2022-11-15T15:49:47;14.00;99.90
12223;DHT22;6174;49.058;8.524;2022-11-15T15:52:14;13.50;99.90
12223;DHT22;6174;49.058;8.524;2022-11-15T15:54:42;13.50;99.90
12223;DHT22;6174;49.058;8.524;2022-11-15T15:57:13;13.50;99.90
12223;DHT22;6174;49.058;8.524;2022-11-15T15:59:40;13.50;99.90
12223;DHT22;6174;49.058;8.524;2022-11-15T16:02:09;13.50;99.90
12223;DHT22;6174;49.058;8.524;2022-11-15T16:04:38;13.50;99.90
12223;DHT22;6174;49.058;8.524;2022-11-15T16:07:16;13.60;99.90
12223;DHT22;6174;49.058;8.524;2022-11-15T16:09:44;13.60;99.90
12223;DHT22;6174;49.058;8.524;2022-11-15T16:12:29;13.50;99.90
12223;DHT22;6174;49.058;8.524;2022-11-15T16:14:56;13.60;99.90
12223;DHT22;6174;49.058;8.524;2022-11-15T16:17:26;13.60;99.90
12223;DHT22;6174;49.058;8.524;2022-11-15T16:19:54;13.60;99.90
12223;DHT22;6174;49.058;8.524;2022-11-15T16:22:23;13.50;99.90
12223;DHT22;6174;49.058;8.524;2022-11-15T16:24:49;13.50;99.90
12223;DHT22;6174;49.058;8.524;2022-11-15T16:27:18;13.50;99.90
12223;DHT22;6174;49.058;8.524;2022-11-15T16:29:46;13.50;99.90
12223;DHT22;6174;49.058;8.524;2022-11-15T16:32:13;13.50;99.90
12223;DHT22;6174;49.058;8.524;2022-11-15T16:34:41;13.60;99.90
12223;DHT22;6174;49.058;8.524;2022-11-15T16:37:15;13.60;99.90
12223;DHT22;6174;49.058;8.524;2022-11-15T16:39:46;13.60;99.90
12223;DHT22;6174;49.058;8.524;2022-11-15T16:42:13;13.60;99.90
12223;DHT22;6174;49.058;8.524;2022-11-15T16:44:40;13.70;99.90
12223;DHT22;6174;49.058;8.524;2022-11-15T16:47:15;13.60;99.90
12223;DHT22;6174;49.058;8.524;2022-11-15T16:49:42;13.70;99.90
12223;DHT22;6174;49.058;8.524;2022-11-15T16:52:09;13.70;99.90
12223;DHT22;6174;49.058;8.524;2022-11-15T16:54:36;13.70;99.90
12223;DHT22;6174;49.058;8.524;2022-11-15T16:57:04;13.70;99.90
12223;DHT22;6174;49.058;8.524;2022-11-15T16:59:31;13.70;99.90
12223;DHT22;6174;49.058;8.524;2022-11-15T17:01:58;13.70;99.90
12223;DHT22;6174;49.058;8.524;2022-11-15T17:04:25;13.70;99.90
12223;DHT22;6174;49.058;8.524;2022-11-15T17:06:57;13.70;99.90
12223;DHT22;6174;49.058;8.524;2022-11-15T17:09:26;13.70;99.90
12223;DHT22;6174;49.058;8.524;2022-11-15T17:11:53;13.60;99.90
12223;DHT22;6174;49.058;8.524;2022-11-15T17:14:21;13.60;99.90
12223;DHT22;6174;49.058;8.524;2022-11-15T17:16:48;13.60;99.90
12223;DHT22;6174;49.058;8.524;2022-11-15T17:19:17;13.60;99.90
12223;DHT22;6174;49.058;8.524;2022-11-15T17:21:45;13.60;99.90
12223;DHT22;6174;49.058;8.524;2022-11-15T17:24:13;13.50;99.90
12223;DHT22;6174;49.058;8.524;2022-11-15T17:26:41;13.60;99.90
12223;DHT22;6174;49.058;8.524;2022-11-15T17:29:08;13.50;99.90
12223;DHT22;6174;49.058;8.524;2022-11-15T17:31:39;13.50;99.90
12223;DHT22;6174;49.058;8.524;2022-11-15T17:34:09;13.50;99.90
12223;DHT22;6174;49.058;8.524;2022-11-15T17:36:36;13.50;99.90
12223;DHT22;6174;49.058;8.524;2022-11-15T17:39:04;13.30;99.90
12223;DHT22;6174;49.058;8.524;2022-11-15T17:41:31;13.50;99.90
12223;DHT22;6174;49.058;8.524;2022-11-15T17:43:59;13.80;99.90
12223;DHT22;6174;49.058;8.524;2022-11-15T17:46:28;13.50;99.90
12223;DHT22;6174;49.058;8.524;2022-11-15T17:48:56;13.50;99.90
12223;DHT22;6174;49.058;8.524;2022-11-15T17:51:23;13.50;99.90
12223;DHT22;6174;49.058;8.524;2022-11-15T17:53:50;13.50;99.90
12223;DHT22;6174;49.058;8.524;2022-11-15T17:56:18;13.40;99.90
12223;DHT22;6174;49.058;8.524;2022-11-15T17:58:49;13.40;99.90
12223;DHT22;6174;49.058;8.524;2022-11-15T18:01:18;13.40;99.90
12223;DHT22;6174;49.058;8.524;2022-11-15T18:03:45;13.40;99.90
12223;DHT22;6174;49.058;8.524;2022-11-15T18:06:14;13.50;99.90
12223;DHT22;6174;49.058;8.524;2022-11-15T18:08:43;13.40;99.90
12223;DHT22;6174;49.058;8.524;2022-11-15T18:11:13;13.30;99.90
12223;DHT22;6174;49.058;8.524;2022-11-15T18:13:41;13.30;99.90
12223;DHT22;6174;49.058;8.524;2022-11-15T18:16:11;13.30;99.90
12223;DHT22;6174;49.058;8.524;2022-11-15T18:18:38;13.40;99.90
12223;DHT22;6174;49.058;8.524;2022-11-15T18:21:10;13.30;99.90
12223;DHT22;6174;49.058;8.524;2022-11-15T18:23:40;13.20;99.90
12223;DHT22;6174;49.058;8.524;2022-11-15T18:26:09;13.60;99.90
12223;DHT22;6174;49.058;8.524;2022-11-15T18:28:39;13.70;99.90
12223;DHT22;6174;49.058;8.524;2022-11-15T18:31:12;13.30;99.90
12223;DHT22;6174;49.058;8.524;2022-11-15T18:33:39;13.30;99.90
12223;DHT22;6174;49.058;8.524;2022-11-15T18:36:10;13.20;99.90
12223;DHT22;6174;49.058;8.524;2022-11-15T18:38:39;13.20;99.90
12223;DHT22;6174;49.058;8.524;2022-11-15T18:41:16;13.10;99.90
12223;DHT22;6174;49.058;8.524;2022-11-15T18:43:45;13.10;99.90
12223;DHT22;6174;49.058;8.524;2022-11-15T18:46:16;13.00;99.90
12223;DHT22;6174;49.058;8.524;2022-11-15T18:48:43;13.00;99.90
12223;DHT22;6174;49.058;8.524;2022-11-15T18:51:12;13.00;99.90
12223;DHT22;6174;49.058;8.524;2022-11-15T18:53:41;13.00;99.90
12223;DHT22;6174;49.058;8.524;2022-11-15T18:56:10;13.00;99.90
12223;DHT22;6174;49.058;8.524;2022-11-15T18:58:39;12.90;99.90
12223;DHT22;6174;49.058;8.524;2022-11-15T19:01:10;12.90;99.90
12223;DHT22;6174;49.058;8.524;2022-11-15T19:03:39;12.90;99.90
12223;DHT22;6174;49.058;8.524;2022-11-15T19:06:07;12.80;99.90
12223;DHT22;6174;49.058;8.524;2022-11-15T19:08:35;12.90;99.90
12223;DHT22;6174;49.058;8.524;2022-11-15T19:11:05;12.90;99.90
12223;DHT22;6174;49.058;8.524;2022-11-15T19:13:33;12.90;99.90
12223;DHT22;6174;49.058;8.524;2022-11-15T19:16:02;12.90;99.90
12223;DHT22;6174;49.058;8.524;2022-11-15T19:18:30;12.80;99.90
12223;DHT22;6174;49.058;8.524;2022-11-15T19:21:01;12.80;99.90
12223;DHT22;6174;49.058;8.524;2022-11-15T19:23:28;12.80;99.90
12223;DHT22;6174;49.058;8.524;2022-11-15T19:25:59;12.70;99.90
12223;DHT22;6174;49.058;8.524;2022-11-15T19:28:28;12.70;99.90
12223;DHT22;6174;49.058;8.524;2022-11-15T19:31:02;12.70;99.90
12223;DHT22;6174;49.058;8.524;2022-11-15T19:33:29;12.80;99.90
12223;DHT22;6174;49.058;8.524;2022-11-15T19:35:59;12.60;99.90
12223;DHT22;6174;49.058;8.524;2022-11-15T19:38:26;12.60;99.90
12223;DHT22;6174;49.058;8.524;2022-11-15T19:40:57;12.60;99.90
12223;DHT22;6174;49.058;8.524;2022-11-15T19:43:23;12.60;99.90
12223;DHT22;6174;49.058;8.524;2022-11-15T19:45:53;12.50;99.90
12223;DHT22;6174;49.058;8.524;2022-11-15T19:48:20;12.50;99.90
12223;DHT22;6174;49.058;8.524;2022-11-15T19:50:47;12.40;99.90
12223;DHT22;6174;49.058;8.524;2022-11-15T19:53:14;12.40;99.90
12223;DHT22;6174;49.058;8.524;2022-11-15T19:55:41;12.40;99.90
12223;DHT22;6174;49.058;8.524;2022-11-15T19:58:08;12.30;99.90
12223;DHT22;6174;49.058;8.524;2022-11-15T20:00:35;12.20;99.90
12223;DHT22;6174;49.058;8.524;2022-11-15T20:03:03;12.30;99.90
12223;DHT22;6174;49.058;8.524;2022-11-15T20:05:30;12.30;99.90
12223;DHT22;6174;49.058;8.524;2022-11-15T20:07:56;12.40;99.90
12223;DHT22;6174;49.058;8.524;2022-11-15T20:10:23;12.30;99.90
12223;DHT22;6174;49.058;8.524;2022-11-15T20:12:50;12.40;99.90
12223;DHT22;6174;49.058;8.524;2022-11-15T20:15:16;12.20;99.90
12223;DHT22;6174;49.058;8.524;2022-11-15T20:17:43;12.20;99.90
12223;DHT22;6174;49.058;8.524;2022-11-15T20:20:12;12.20;99.90
12223;DHT22;6174;49.058;8.524;2022-11-15T20:22:38;12.10;99.90
12223;DHT22;6174;49.058;8.524;2022-11-15T20:25:05;12.20;99.90
12223;DHT22;6174;49.058;8.524;2022-11-15T20:27:32;12.20;99.90
12223;DHT22;6174;49.058;8.524;2022-11-15T20:29:59;12.20;99.90
12223;DHT22;6174;49.058;8.524;2022-11-15T20:32:26;12.20;99.90
12223;DHT22;6174;49.058;8.524;2022-11-15T20:34:53;12.20;99.90
12223;DHT22;6174;49.058;8.524;2022-11-15T20:37:21;12.20;99.90
12223;DHT22;6174;49.058;8.524;2022-11-15T20:39:48;12.20;99.90
12223;DHT22;6174;49.058;8.524;2022-11-15T20:42:14;12.20;99.90
12223;DHT22;6174;49.058;8.524;2022-11-15T20:44:41;12.20;99.90
12223;DHT22;6174;49.058;8.524;2022-11-15T20:47:08;12.20;99.90
12223;DHT22;6174;49.058;8.524;2022-11-15T20:49:35;12.20;99.90
12223;DHT22;6174;49.058;8.524;2022-11-15T20:52:02;12.20;99.90
12223;DHT22;6174;49.058;8.524;2022-11-15T20:54:30;12.20;99.90
12223;DHT22;6174;49.058;8.524;2022-11-15T20:56:57;12.20;99.90
12223;DHT22;6174;49.058;8.524;2022-11-15T20:59:24;12.20;99.90
12223;DHT22;6174;49.058;8.524;2022-11-15T21:01:51;12.10;99.90
12223;DHT22;6174;49.058;8.524;2022-11-15T21:04:17;12.10;99.90
12223;DHT22;6174;49.058;8.524;2022-11-15T21:06:44;12.10;99.90
12223;DHT22;6174;49.058;8.524;2022-11-15T21:09:11;12.00;99.90
12223;DHT22;6174;49.058;8.524;2022-11-15T21:11:57;12.00;99.90
12223;DHT22;6174;49.058;8.524;2022-11-15T21:14:40;12.10;99.90
12223;DHT22;6174;49.058;8.524;2022-11-15T21:17:07;12.00;99.90